Time;durP1;ratioP1;P1;durP2;ratioP2;P2;SDS_P1;SDS_P2;PMS_P1;PMS_P2;Temp;Humidity;BMP_temperature;BMP_pressure;BME280_temperature;BME280_humidity;BME280_pressure;Samples;Min_cycle;Max_cycle;Signal;HPM_P1;HPM_P2
2024/03/10 00:00:20;;;;;;;26.70;12.70;;;;;;;3.01;64.10;98814.58;105631;1254;107633;-78
2024/03/10 00:03:08;;;;;;;28.40;12.90;;;;;;;2.96;64.05;98813.04;105392;1257;98040;-78
2024/03/10 00:05:39;;;;;;;26.40;12.30;;;;;;;2.95;64.29;98813.10;105499;1253;96504;-78
2024/03/10 00:08:07;;;;;;;26.50;12.30;;;;;;;2.93;64.17;98810.56;105262;1256;109887;-77
2024/03/10 00:10:41;;;;;;;26.30;13.30;;;;;;;2.92;64.18;98808.16;105384;1267;96666;-78
2024/03/10 00:13:09;;;;;;;26.50;13.00;;;;;;;2.93;64.34;98810.17;105634;1253;107687;-75
2024/03/10 00:15:37;;;;;;;31.70;14.40;;;;;;;2.95;64.29;98810.64;105496;1254;96632;-78
2024/03/10 00:18:06;;;;;;;28.70;12.80;;;;;;;2.95;64.31;98810.81;105687;1254;96589;-79
2024/03/10 00:20:34;;;;;;;32.60;13.90;;;;;;;2.95;64.30;98813.25;105209;1258;109927;-78
2024/03/10 00:23:02;;;;;;;31.30;13.40;;;;;;;2.97;64.50;98813.36;105346;1256;96599;-78
2024/03/10 00:25:30;;;;;;;27.90;13.00;;;;;;;2.96;64.50;98812.68;105515;1267;107236;-78
2024/03/10 00:27:58;;;;;;;26.00;12.80;;;;;;;2.94;64.08;98808.41;105669;1257;97880;-78
2024/03/10 00:30:26;;;;;;;28.00;13.10;;;;;;;2.90;64.16;98805.10;105519;1254;96591;-77
2024/03/10 00:32:55;;;;;;;27.20;13.70;;;;;;;2.81;64.06;98800.21;105425;1257;109342;-77
2024/03/10 00:35:23;;;;;;;33.30;15.80;;;;;;;2.72;64.21;98802.04;105579;1256;96892;-75
2024/03/10 00:37:52;;;;;;;35.80;16.20;;;;;;;2.63;64.47;98800.16;105467;1267;107666;-77
2024/03/10 00:40:20;;;;;;;35.90;15.60;;;;;;;2.57;64.25;98798.33;105668;1253;96619;-75
2024/03/10 00:42:48;;;;;;;36.00;17.00;;;;;;;2.48;64.02;98792.92;105513;1254;96707;-79
2024/03/10 00:45:16;;;;;;;46.80;20.50;;;;;;;2.37;64.03;98797.43;105510;1253;110351;-79
2024/03/10 00:47:45;;;;;;;47.50;21.70;;;;;;;2.30;64.39;98797.03;105418;1257;97522;-76
2024/03/10 00:50:14;;;;;;;45.70;21.60;;;;;;;2.25;64.37;98795.52;105544;1254;107144;-77
2024/03/10 00:52:42;;;;;;;44.00;19.90;;;;;;;2.21;64.50;98792.00;105797;1256;97545;-79
2024/03/10 00:55:10;;;;;;;41.60;20.10;;;;;;;2.19;64.74;98791.54;105456;1252;97681;-78
2024/03/10 00:57:40;;;;;;;38.70;18.40;;;;;;;2.21;64.72;98789.02;105704;1254;110067;-78
2024/03/10 01:00:10;;;;;;;38.60;17.60;;;;;;;2.19;64.70;98784.73;105659;1257;96602;-78
2024/03/10 01:02:39;;;;;;;45.00;20.20;;;;;;;2.13;64.72;98786.39;105701;1258;107332;-78
2024/03/10 01:05:09;;;;;;;41.10;18.50;;;;;;;2.05;64.74;98791.78;105461;1257;96654;-78
2024/03/10 01:07:38;;;;;;;42.40;18.40;;;;;;;1.98;64.79;98789.29;105786;1253;97835;-78
2024/03/10 01:10:08;;;;;;;44.20;20.00;;;;;;;1.93;64.28;98791.23;105488;1256;109975;-80
2024/03/10 01:12:36;;;;;;;55.90;23.90;;;;;;;1.87;64.37;98791.15;105432;1253;98236;-77
2024/03/10 01:15:05;;;;;;;43.20;21.20;;;;;;;1.77;64.78;98785.94;105121;1258;108077;-76
2024/03/10 01:17:34;;;;;;;45.00;20.20;;;;;;;1.73;64.64;98787.52;105450;1272;96575;-78
2024/03/10 01:20:03;;;;;;;48.40;22.90;;;;;;;1.72;64.91;98784.74;105416;1253;96512;-76
2024/03/10 01:22:32;;;;;;;48.80;21.90;;;;;;;1.74;64.71;98787.27;105525;1257;109871;-78
2024/03/10 01:25:00;;;;;;;47.60;21.10;;;;;;;1.72;64.42;98791.23;105670;1256;97437;-78
2024/03/10 01:27:28;;;;;;;57.40;24.90;;;;;;;1.67;64.34;98783.03;105694;1254;107597;-78
2024/03/10 01:29:56;;;;;;;59.50;25.00;;;;;;;1.61;64.79;98783.42;105460;1258;96639;-78
2024/03/10 01:32:24;;;;;;;58.60;25.40;;;;;;;1.60;64.99;98782.63;105607;1254;96663;-75
2024/03/10 01:34:53;;;;;;;54.60;23.40;;;;;;;1.59;65.09;98785.63;105806;1253;109899;-78
2024/03/10 01:37:21;;;;;;;63.40;26.90;;;;;;;1.58;64.74;98785.48;105457;1252;96930;-76
2024/03/10 01:39:49;;;;;;;66.00;28.00;;;;;;;1.60;65.32;98781.56;105412;1256;107049;-78
2024/03/10 01:42:17;;;;;;;58.20;25.20;;;;;;;1.62;64.83;98778.14;105424;1254;96584;-78
2024/03/10 01:44:46;;;;;;;53.50;21.90;;;;;;;1.64;65.17;98775.80;105681;1253;97544;-80
2024/03/10 01:47:14;;;;;;;48.20;21.80;;;;;;;1.63;65.25;98774.77;105738;1255;109415;-78
2024/03/10 01:49:43;;;;;;;41.80;19.80;;;;;;;1.61;65.56;98770.85;105316;1256;96590;-79
2024/03/10 01:52:11;;;;;;;52.10;25.40;;;;;;;1.60;65.09;98769.33;105583;1253;107698;-79
2024/03/10 01:54:39;;;;;;;60.40;28.40;;;;;;;1.62;65.28;98768.38;105669;1253;96683;-78
2024/03/10 01:57:08;;;;;;;53.00;24.30;;;;;;;1.59;65.19;98769.00;105629;1256;96818;-78
2024/03/10 01:59:38;;;;;;;47.80;22.60;;;;;;;1.54;65.13;98772.39;105814;1253;109953;-79
2024/03/10 02:02:06;;;;;;;42.00;19.40;;;;;;;1.52;65.19;98774.73;106084;1269;96591;-77
2024/03/10 02:04:37;;;;;;;41.40;18.80;;;;;;;1.48;65.44;98781.68;105495;1257;106693;-78
2024/03/10 02:07:05;;;;;;;37.20;17.80;;;;;;;1.48;65.15;98786.43;105470;1254;96619;-79
2024/03/10 02:09:35;;;;;;;36.80;17.40;;;;;;;1.42;64.81;98783.69;105497;1253;96606;-78
2024/03/10 02:12:07;;;;;;;34.50;17.20;;;;;;;1.39;65.22;98784.00;105703;1256;109954;-78
2024/03/10 02:14:35;;;;;;;36.80;16.90;;;;;;;1.41;65.46;98782.31;105578;1256;96605;-78
2024/03/10 02:17:03;;;;;;;30.50;14.60;;;;;;;1.41;65.14;98777.43;105282;1260;107638;-78
2024/03/10 02:19:31;;;;;;;33.50;15.80;;;;;;;1.43;65.16;98770.55;105685;1256;96590;-78
2024/03/10 02:21:59;;;;;;;30.30;16.20;;;;;;;1.46;65.29;98767.44;105608;1253;96575;-78
2024/03/10 02:24:33;;;;;;;34.50;16.60;;;;;;;1.51;65.64;98763.40;105622;1256;109450;-78
2024/03/10 02:27:02;;;;;;;29.10;15.00;;;;;;;1.57;65.92;98764.40;107320;1253;96603;-77
2024/03/10 02:29:30;;;;;;;38.20;16.10;;;;;;;1.62;65.60;98761.73;105499;1256;107286;-79
2024/03/10 02:48:39;;;;;;;43.30;20.00;;;;;;;1.67;65.91;98750.16;105319;1256;96597;-78
2024/03/10 02:51:07;;;;;;;49.20;21.40;;;;;;;1.68;65.78;98746.45;105697;1254;109606;-78
2024/03/10 02:53:35;;;;;;;45.60;19.50;;;;;;;1.67;65.93;98747.91;105716;1253;97503;-78
2024/03/10 02:56:03;;;;;;;41.30;18.20;;;;;;;1.68;65.91;98747.35;105412;1254;108216;-79
2024/03/10 02:58:31;;;;;;;39.40;19.40;;;;;;;1.68;66.22;98743.48;105574;1256;96626;-79
2024/03/10 03:00:59;;;;;;;41.90;18.80;;;;;;;1.69;66.38;98742.05;105449;1253;97984;-77
2024/03/10 03:03:28;;;;;;;37.20;17.80;;;;;;;1.68;66.06;98745.21;105726;1256;109322;-78
2024/03/10 03:05:56;;;;;;;43.50;19.30;;;;;;;1.71;65.99;98745.63;105526;1256;97394;-78
2024/03/10 03:08:24;;;;;;;36.80;17.70;;;;;;;1.71;66.34;98745.27;105358;1272;107374;-78
2024/03/10 03:10:52;;;;;;;34.40;16.30;;;;;;;1.71;65.96;98751.06;105683;1256;97500;-77
2024/03/10 03:13:20;;;;;;;40.30;18.60;;;;;;;1.73;65.98;98749.04;105193;1257;96600;-78
2024/03/10 03:15:48;;;;;;;38.90;18.50;;;;;;;1.75;65.79;98747.39;105666;1253;110677;-78
2024/03/10 03:18:16;;;;;;;45.10;19.20;;;;;;;1.73;66.15;98750.27;105697;1256;96526;-78
2024/03/10 03:20:44;;;;;;;34.70;17.30;;;;;;;1.74;66.40;98748.33;105397;1254;106852;-78
2024/03/10 03:23:12;;;;;;;46.80;19.70;;;;;;;1.74;66.10;98742.38;105347;1254;97253;-77
2024/03/10 03:25:40;;;;;;;44.60;19.50;;;;;;;1.72;65.87;98741.22;105211;1254;96664;-78
2024/03/10 03:28:08;;;;;;;56.00;24.20;;;;;;;1.72;66.25;98731.97;105566;1256;109959;-79
2024/03/10 03:30:36;;;;;;;56.00;24.30;;;;;;;1.70;66.31;98729.94;105658;1254;96610;-77
2024/03/10 03:33:04;;;;;;;58.50;25.80;;;;;;;1.69;66.11;98731.92;105250;1256;107502;-77
2024/03/10 03:35:32;;;;;;;54.40;24.70;;;;;;;1.70;66.49;98730.66;105363;1254;97299;-77
2024/03/10 03:38:03;;;;;;;50.60;23.90;;;;;;;1.68;66.40;98733.89;105610;1256;96679;-78
2024/03/10 03:40:31;;;;;;;50.90;24.10;;;;;;;1.67;66.33;98735.48;105447;1254;110256;-77
2024/03/10 03:42:59;;;;;;;56.70;24.90;;;;;;;1.65;66.26;98738.54;105339;1254;96599;-79
2024/03/10 03:45:27;;;;;;;49.50;24.00;;;;;;;1.62;66.43;98737.23;105300;1256;108263;-78
2024/03/10 03:47:56;;;;;;;47.40;22.50;;;;;;;1.61;66.81;98734.17;105386;1256;96569;-78
2024/03/10 03:50:26;;;;;;;46.20;22.60;;;;;;;1.59;66.84;98727.58;105216;1257;96516;-78
2024/03/10 03:52:54;;;;;;;51.50;23.60;;;;;;;1.54;66.87;98727.46;105446;1254;109988;-78
2024/03/10 03:55:22;;;;;;;54.20;24.20;;;;;;;1.50;66.68;98725.86;105235;1256;97540;-77
2024/03/10 03:57:50;;;;;;;45.40;21.90;;;;;;;1.49;66.77;98723.80;105377;1256;107592;-78
2024/03/10 04:00:18;;;;;;;50.70;23.30;;;;;;;1.48;66.93;98722.97;105631;1257;96586;-79
2024/03/10 04:02:46;;;;;;;46.50;22.50;;;;;;;1.47;66.82;98719.67;105587;1254;97030;-81
2024/03/10 04:05:14;;;;;;;49.60;22.80;;;;;;;1.48;66.96;98716.84;105229;1257;110012;-79
2024/03/10 04:07:43;;;;;;;46.40;22.50;;;;;;;1.47;67.07;98717.41;105446;1256;96580;-78
2024/03/10 04:10:11;;;;;;;45.00;20.70;;;;;;;1.46;66.96;98715.89;105468;1258;108305;-78
2024/03/10 04:12:39;;;;;;;43.30;19.90;;;;;;;1.44;66.86;98717.90;105216;1256;96630;-76
2024/03/10 04:15:07;;;;;;;40.70;19.80;;;;;;;1.43;67.24;98721.41;105384;1254;96597;-76
2024/03/10 04:17:35;;;;;;;43.50;21.60;;;;;;;1.42;66.78;98722.35;105408;1255;109946;-77
2024/03/10 04:20:12;;;;;;;52.50;22.80;;;;;;;1.41;67.09;98718.05;105328;1264;96617;-77
2024/03/10 04:22:40;;;;;;;43.90;19.00;;;;;;;1.40;67.09;98713.35;105369;1256;107623;-75
2024/03/10 04:25:09;;;;;;;40.60;19.90;;;;;;;1.38;67.03;98715.52;105467;1257;96620;-79
2024/03/10 04:27:37;;;;;;;43.30;19.80;;;;;;;1.38;67.48;98717.95;105790;1253;96657;-80
2024/03/10 04:30:06;;;;;;;41.30;20.70;;;;;;;1.40;67.35;98715.64;105878;1253;109949;-79
2024/03/10 04:32:34;;;;;;;42.10;20.30;;;;;;;1.40;67.37;98715.27;105554;1253;96485;-78
2024/03/10 04:35:02;;;;;;;44.10;19.70;;;;;;;1.41;67.38;98712.98;105529;1254;108408;-78
2024/03/10 04:37:30;;;;;;;42.60;19.10;;;;;;;1.40;67.36;98715.45;105761;1254;96572;-77
2024/03/10 04:39:58;;;;;;;41.50;19.90;;;;;;;1.40;67.47;98714.40;105377;1254;96587;-78
2024/03/10 04:42:26;;;;;;;39.70;18.50;;;;;;;1.40;67.39;98715.27;105365;1253;109475;-79
2024/03/10 04:44:54;;;;;;;46.70;20.70;;;;;;;1.40;67.47;98718.41;105311;1256;96622;-78
2024/03/10 04:47:22;;;;;;;41.00;20.70;;;;;;;1.40;67.21;98718.05;105441;1256;106154;-78
2024/03/10 04:49:50;;;;;;;44.80;20.70;;;;;;;1.39;67.25;98719.15;105506;1257;96597;-79
2024/03/10 04:52:18;;;;;;;40.70;19.80;;;;;;;1.38;67.38;98718.16;105434;1256;96581;-78
2024/03/10 04:54:46;;;;;;;40.90;18.30;;;;;;;1.38;67.48;98720.61;105395;1257;109309;-78
2024/03/10 04:57:14;;;;;;;37.60;18.40;;;;;;;1.36;67.53;98713.35;105597;1259;96646;-77
2024/03/10 04:59:41;;;;;;;43.50;19.00;;;;;;;1.35;67.55;98714.61;105340;1256;107631;-79
2024/03/10 05:02:10;;;;;;;42.10;19.50;;;;;;;1.34;67.42;98715.69;105765;1256;97896;-78
2024/03/10 05:04:38;;;;;;;38.50;18.70;;;;;;;1.34;67.63;98714.48;105482;1256;96504;-77
2024/03/10 05:07:06;;;;;;;44.50;20.00;;;;;;;1.35;67.48;98716.69;105281;1256;109396;-78
2024/03/10 05:09:34;;;;;;;39.70;19.20;;;;;;;1.37;67.48;98715.41;105663;1256;96599;-79
2024/03/10 05:12:03;;;;;;;37.30;18.80;;;;;;;1.36;67.70;98715.61;105693;1254;107612;-78
2024/03/10 05:14:31;;;;;;;38.10;18.40;;;;;;;1.35;67.49;98714.06;105634;1267;96655;-79
2024/03/10 05:17:00;;;;;;;38.70;18.00;;;;;;;1.34;67.59;98713.23;105415;1254;96578;-78
2024/03/10 05:19:29;;;;;;;36.00;18.30;;;;;;;1.34;67.93;98720.74;105324;1254;109865;-76
2024/03/10 05:21:57;;;;;;;41.00;18.90;;;;;;;1.35;67.75;98719.48;105515;1256;96529;-78
2024/03/10 05:24:25;;;;;;;43.40;18.90;;;;;;;1.37;67.54;98719.93;105616;1256;107625;-77
2024/03/10 05:26:53;;;;;;;35.60;17.30;;;;;;;1.38;67.59;98726.34;105514;1259;96578;-78
2024/03/10 05:29:20;;;;;;;40.80;17.40;;;;;;;1.42;67.44;98725.84;105726;1253;96600;-75
2024/03/10 05:31:49;;;;;;;32.70;17.00;;;;;;;1.44;67.81;98727.31;105454;1256;109636;-77
2024/03/10 05:34:19;;;;;;;31.00;15.00;;;;;;;1.46;68.06;98726.36;105519;1254;97556;-77
2024/03/10 05:36:47;;;;;;;34.20;17.50;;;;;;;1.49;67.96;98726.42;105467;1257;107150;-79
2024/03/10 05:39:15;;;;;;;32.50;16.50;;;;;;;1.54;67.94;98724.14;105730;1256;97078;-78
2024/03/10 05:41:43;;;;;;;34.50;16.50;;;;;;;1.58;67.97;98730.63;105641;1256;96513;-78
2024/03/10 05:44:14;;;;;;;32.60;15.40;;;;;;;1.61;67.80;98735.73;105486;1255;109916;-78
2024/03/10 05:46:42;;;;;;;38.00;17.50;;;;;;;1.64;68.29;98732.98;105516;1256;96626;-78
2024/03/10 05:49:10;;;;;;;29.00;14.40;;;;;;;1.69;68.12;98735.95;105399;1254;107187;-78
2024/03/10 05:51:38;;;;;;;33.70;17.80;;;;;;;1.72;67.91;98740.88;105366;1257;97925;-79
2024/03/10 05:54:06;;;;;;;35.70;17.50;;;;;;;1.73;68.25;98740.29;105345;1256;96488;-79
2024/03/10 05:56:34;;;;;;;28.20;14.60;;;;;;;1.76;68.29;98740.86;105446;1256;109387;-78
2024/03/10 05:59:03;;;;;;;29.70;15.40;;;;;;;1.79;68.14;98737.42;105659;1256;96682;-78
2024/03/10 06:01:31;;;;;;;28.50;15.40;;;;;;;1.82;68.33;98738.89;105309;1254;107604;-80
2024/03/10 06:03:59;;;;;;;37.70;16.30;;;;;;;1.85;68.10;98732.48;105507;1256;96615;-78
2024/03/10 06:06:28;;;;;;;31.80;15.00;;;;;;;1.90;68.38;98731.20;105948;1256;96534;-77
2024/03/10 06:08:57;;;;;;;31.60;15.40;;;;;;;1.93;68.62;98736.12;105457;1256;108121;-80
2024/03/10 06:11:24;;;;;;;31.30;16.50;;;;;;;1.97;68.59;98734.59;105547;1257;97016;-78
2024/03/10 06:13:53;;;;;;;32.20;15.90;;;;;;;2.00;68.64;98729.74;105206;1264;107011;-78
2024/03/10 06:16:22;;;;;;;33.00;16.40;;;;;;;2.03;68.68;98731.34;105417;1256;97800;-75
2024/03/10 06:27:00;;;;;;;31.50;15.50;;;;;;;2.17;68.68;98731.29;105491;1270;108380;-78
2024/03/10 06:29:29;;;;;;;25.00;13.10;;;;;;;2.20;68.93;98729.23;105761;1256;97974;-78
2024/03/10 06:31:58;;;;;;;30.00;14.90;;;;;;;2.24;68.49;98724.87;105711;1256;96599;-78
2024/03/10 06:34:27;;;;;;;27.70;13.40;;;;;;;2.28;68.72;98723.81;105671;1253;109707;-79
2024/03/10 06:36:55;;;;;;;25.70;13.20;;;;;;;2.31;68.65;98726.81;105546;1253;96802;-78
2024/03/10 06:39:24;;;;;;;30.60;15.00;;;;;;;2.37;68.96;98724.98;105548;1256;107726;-78
2024/03/10 06:41:52;;;;;;;36.00;15.20;;;;;;;2.44;69.03;98727.27;105511;1256;97912;-78
2024/03/10 06:44:21;;;;;;;27.20;13.10;;;;;;;2.53;68.99;98731.42;105383;1256;96707;-78
2024/03/10 06:46:50;;;;;;;27.20;14.80;;;;;;;2.63;69.20;98727.30;105683;1254;109748;-76
2024/03/10 06:49:18;;;;;;;33.80;16.50;;;;;;;2.74;69.18;98729.81;105537;1252;97407;-78
2024/03/10 06:51:46;;;;;;;29.50;14.90;;;;;;;2.82;69.54;98733.09;105606;1256;107637;-78
2024/03/10 06:54:14;;;;;;;32.70;16.10;;;;;;;2.92;69.04;98733.15;105608;1256;97478;-80
2024/03/10 06:56:42;;;;;;;26.40;14.40;;;;;;;3.03;69.52;98737.95;105449;1254;96593;-77
2024/03/10 06:59:12;;;;;;;36.30;14.70;;;;;;;3.12;69.32;98736.41;105636;1258;110021;-78
2024/03/10 07:01:44;;;;;;;24.10;12.20;;;;;;;3.25;69.52;98734.27;105830;1256;98015;-68
2024/03/10 07:04:16;;;;;;;28.20;13.70;;;;;;;3.42;69.54;98730.84;105620;1257;107207;-67
2024/03/10 07:06:46;;;;;;;27.70;14.00;;;;;;;3.56;69.50;98730.15;105460;1254;96623;-67
2024/03/10 07:09:15;;;;;;;24.90;12.70;;;;;;;3.68;69.65;98734.10;105605;1253;96590;-69
2024/03/10 07:11:44;;;;;;;25.20;12.90;;;;;;;3.81;69.69;98729.27;105437;1256;109894;-68
2024/03/10 07:14:12;;;;;;;21.40;12.20;;;;;;;3.92;69.72;98728.53;105684;1256;96587;-68
2024/03/10 07:16:47;;;;;;;25.70;12.60;;;;;;;4.02;69.81;98731.18;105541;1258;107505;-68
2024/03/10 07:19:16;;;;;;;23.10;12.60;;;;;;;4.12;69.71;98732.61;105597;1254;96657;-67
2024/03/10 07:21:44;;;;;;;23.80;12.40;;;;;;;4.21;70.02;98734.42;105678;1256;96677;-67
2024/03/10 07:24:12;;;;;;;25.30;12.30;;;;;;;4.28;69.97;98735.42;105634;1256;110517;-68
2024/03/10 07:26:41;;;;;;;26.00;12.60;;;;;;;4.37;69.94;98736.40;105319;1256;97880;-66
2024/03/10 07:29:09;;;;;;;23.90;12.50;;;;;;;4.45;69.77;98732.30;105260;1254;108065;-67
2024/03/10 07:31:38;;;;;;;20.00;11.40;;;;;;;4.52;69.90;98732.27;105667;1256;96696;-67
2024/03/10 07:34:07;;;;;;;22.90;11.50;;;;;;;4.60;69.90;98731.65;105741;1256;96510;-67
2024/03/10 07:36:35;;;;;;;25.80;12.30;;;;;;;4.70;69.88;98733.41;105700;1256;108842;-67
2024/03/10 07:39:06;;;;;;;26.00;13.20;;;;;;;4.79;69.90;98736.31;105562;1255;96599;-69
2024/03/10 07:41:34;;;;;;;40.10;19.70;;;;;;;4.89;69.97;98736.27;105425;1254;107095;-68
2024/03/10 07:44:03;;;;;;;34.50;17.50;;;;;;;4.97;70.11;98738.48;105657;1254;97179;-67
2024/03/10 07:46:31;;;;;;;66.30;30.80;;;;;;;5.05;70.00;98743.13;105578;1256;97605;-67
2024/03/10 07:49:02;;;;;;;35.00;17.50;;;;;;;5.16;70.18;98740.77;105711;1256;109799;-70
2024/03/10 07:51:30;;;;;;;29.70;15.50;;;;;;;5.28;70.19;98741.69;105466;1256;96588;-67
2024/03/10 07:54:00;;;;;;;26.30;13.50;;;;;;;5.40;70.07;98735.79;105118;1254;107720;-67
2024/03/10 07:56:28;;;;;;;23.60;12.60;;;;;;;5.51;70.31;98733.41;105629;1256;96546;-68
2024/03/10 07:59:00;;;;;;;20.20;11.50;;;;;;;5.62;70.19;98740.16;105267;1256;96587;-66
2024/03/10 08:01:28;;;;;;;19.90;12.30;;;;;;;5.70;70.12;98738.13;105607;1253;110853;-71
2024/03/10 08:03:56;;;;;;;20.70;12.10;;;;;;;5.76;70.15;98739.02;105178;1266;96590;-70
2024/03/10 08:06:25;;;;;;;26.80;13.80;;;;;;;5.83;70.22;98736.48;105624;1254;107597;-68
2024/03/10 08:08:54;;;;;;;23.10;12.60;;;;;;;5.91;70.21;98727.55;105646;1254;96680;-69
2024/03/10 08:11:22;;;;;;;20.10;11.20;;;;;;;6.01;70.28;98722.09;105430;1266;96504;-69
2024/03/10 08:13:50;;;;;;;18.10;10.70;;;;;;;6.12;70.16;98713.48;105485;1254;109876;-69
2024/03/10 08:16:19;;;;;;;14.10;7.60;;;;;;;6.33;70.40;98710.85;105516;1268;96642;-69
2024/03/10 08:18:46;;;;;;;14.20;7.10;;;;;;;6.57;70.51;98712.19;105546;1256;106825;-69
2024/03/10 08:21:18;;;;;;;12.10;7.60;;;;;;;6.80;70.28;98703.41;105428;1256;97451;-69
2024/03/10 08:23:46;;;;;;;12.00;6.50;;;;;;;6.97;70.34;98702.50;105725;1254;96673;-69
2024/03/10 08:26:14;;;;;;;11.40;6.60;;;;;;;7.12;70.33;98704.20;105440;1256;109974;-69
2024/03/10 08:28:42;;;;;;;9.30;6.00;;;;;;;7.27;70.50;98701.98;105333;1254;97367;-69
2024/03/10 08:31:12;;;;;;;11.10;6.60;;;;;;;7.43;70.27;98702.55;105379;1256;107329;-69
2024/03/10 08:33:40;;;;;;;14.10;6.00;;;;;;;7.56;70.28;98704.35;105669;1256;96581;-73
2024/03/10 08:36:09;;;;;;;10.60;6.90;;;;;;;7.66;70.36;98700.38;105398;1256;96485;-72
2024/03/10 08:38:40;;;;;;;9.50;5.90;;;;;;;7.76;70.12;98696.67;105487;1256;107887;-76
2024/03/10 08:41:08;;;;;;;10.70;5.50;;;;;;;7.85;70.04;98696.23;105197;1259;96690;-77
2024/03/10 08:43:37;;;;;;;11.20;6.30;;;;;;;7.93;70.05;98698.02;105432;1256;108044;-68
2024/03/10 08:46:05;;;;;;;11.70;5.50;;;;;;;8.01;69.90;98701.52;105179;1256;96547;-68
2024/03/10 08:48:33;;;;;;;9.70;6.20;;;;;;;8.09;69.98;98697.33;105691;1257;97329;-68
2024/03/10 08:51:01;;;;;;;9.90;5.70;;;;;;;8.15;69.87;98695.10;105336;1256;109719;-68
2024/03/10 08:53:29;;;;;;;10.90;5.40;;;;;;;8.25;69.89;98693.00;105481;1257;97530;-74
2024/03/10 08:55:57;;;;;;;11.10;6.00;;;;;;;8.33;69.61;98687.55;105403;1253;107182;-69
2024/03/10 08:58:25;;;;;;;8.00;5.20;;;;;;;8.41;69.85;98686.12;105689;1253;96587;-69
2024/03/10 09:00:53;;;;;;;9.00;5.10;;;;;;;8.48;69.84;98684.04;105639;1256;96582;-68
2024/03/10 09:03:22;;;;;;;9.30;5.50;;;;;;;8.58;69.71;98678.25;105560;1252;109299;-70
2024/03/10 09:05:51;;;;;;;9.50;6.40;;;;;;;8.66;69.60;98670.05;107037;1256;96593;-68
2024/03/10 09:08:19;;;;;;;10.10;5.70;;;;;;;8.73;69.46;98673.33;108720;1252;107579;-71
2024/03/10 09:10:47;;;;;;;8.00;5.20;;;;;;;8.80;69.39;98672.09;106545;1254;97888;-67
2024/03/10 09:13:29;;;;;;;10.10;5.50;;;;;;;8.90;69.36;98671.36;105460;1254;96600;-72
2024/03/10 09:15:57;;;;;;;8.60;4.90;;;;;;;8.99;69.30;98669.01;105224;1256;109558;-68
2024/03/10 09:18:26;;;;;;;10.20;5.40;;;;;;;9.04;69.19;98666.45;105336;1264;97527;-69
2024/03/10 09:20:54;;;;;;;10.00;5.60;;;;;;;9.10;68.92;98675.62;105381;1256;107147;-70
2024/03/10 09:23:22;;;;;;;8.20;5.40;;;;;;;9.14;68.98;98666.63;105473;1267;97353;-69
2024/03/10 09:25:50;;;;;;;8.70;5.30;;;;;;;9.19;68.88;98669.44;105424;1256;96597;-70
2024/03/10 09:28:20;;;;;;;9.40;5.60;;;;;;;9.24;68.88;98671.59;105644;1256;107920;-72
2024/03/10 09:30:48;;;;;;;10.60;5.90;;;;;;;9.30;68.94;98671.53;105602;1265;96646;-70
2024/03/10 09:33:17;;;;;;;8.40;5.50;;;;;;;9.41;68.90;98668.77;105665;1257;107829;-69
2024/03/10 09:35:45;;;;;;;9.10;5.20;;;;;;;9.55;69.01;98672.99;105138;1254;97897;-69
2024/03/10 09:38:13;;;;;;;8.70;5.80;;;;;;;9.68;68.97;98669.40;105309;1256;97534;-70
2024/03/10 09:40:41;;;;;;;8.30;5.10;;;;;;;9.78;68.67;98664.56;105495;1256;110916;-68
2024/03/10 09:43:11;;;;;;;8.90;5.10;;;;;;;9.89;68.60;98663.57;105654;1256;96584;-67
2024/03/10 09:45:43;;;;;;;9.10;6.00;;;;;;;9.98;68.32;98660.91;105488;1259;107420;-68
2024/03/10 09:48:12;;;;;;;11.30;6.10;;;;;;;10.07;68.03;98663.62;105473;1254;96609;-68
2024/03/10 09:50:46;;;;;;;10.20;6.00;;;;;;;10.18;68.29;98653.75;105395;1256;96618;-69
2024/03/10 09:53:19;;;;;;;10.00;5.90;;;;;;;10.35;68.20;98648.17;105566;1256;109872;-69
2024/03/10 09:55:52;;;;;;;10.30;6.60;;;;;;;10.53;67.91;98643.06;105466;1256;97965;-69
2024/03/10 09:58:43;;;;;;;11.00;6.80;;;;;;;10.66;67.86;98643.96;105512;1254;107614;-72
2024/03/10 10:01:18;;;;;;;13.10;6.60;;;;;;;10.76;67.81;98636.46;105374;1256;96782;-70
2024/03/10 10:03:52;;;;;;;8.40;5.10;;;;;;;10.84;67.72;98637.27;105369;1256;96826;-69
2024/03/10 10:06:21;;;;;;;10.70;6.30;;;;;;;10.91;67.82;98633.29;105301;1253;109666;-71
2024/03/10 10:08:54;;;;;;;8.50;5.10;;;;;;;11.03;67.81;98639.07;105391;1256;96598;-69
2024/03/10 10:11:23;;;;;;;11.30;5.80;;;;;;;11.11;67.53;98640.77;105526;1258;105865;-69
2024/03/10 10:14:14;;;;;;;9.30;5.70;;;;;;;11.17;67.52;98646.69;105638;1256;96645;-68
2024/03/10 10:16:55;;;;;;;11.60;6.20;;;;;;;11.27;67.38;98645.87;105620;1256;96629;-68
2024/03/10 10:19:26;;;;;;;10.40;5.70;;;;;;;11.36;67.36;98644.62;106904;1256;109307;-70
2024/03/10 10:21:54;;;;;;;11.20;5.60;;;;;;;11.46;67.35;98645.02;105286;1264;97202;-69
2024/03/10 10:24:22;;;;;;;8.70;5.20;;;;;;;11.58;67.37;98638.65;105109;1258;108024;-70
2024/03/10 10:26:58;;;;;;;8.90;5.50;;;;;;;11.71;67.14;98638.14;105122;1254;96600;-68
2024/03/10 10:29:27;;;;;;;7.80;5.00;;;;;;;11.82;66.98;98639.52;105512;1259;96708;-68
2024/03/10 10:31:58;;;;;;;8.40;5.00;;;;;;;11.89;66.74;98634.80;105471;1256;109973;-73
2024/03/10 10:34:28;;;;;;;8.60;5.00;;;;;;;12.00;66.31;98642.12;105390;1254;96564;-70
2024/03/10 10:36:56;;;;;;;9.10;5.70;;;;;;;12.07;65.92;98641.34;105485;1259;107554;-69
2024/03/10 10:39:29;;;;;;;10.30;5.80;;;;;;;12.11;65.88;98642.04;105337;1256;97183;-70
2024/03/10 10:41:58;;;;;;;8.50;5.10;;;;;;;12.12;65.78;98648.06;105615;1258;97578;-69
2024/03/10 10:44:29;;;;;;;10.80;5.60;;;;;;;12.10;65.75;98644.25;105212;1256;108388;-68
2024/03/10 10:47:00;;;;;;;8.00;5.30;;;;;;;12.10;65.61;98644.65;105541;1256;96609;-69
2024/03/10 10:49:29;;;;;;;7.60;4.80;;;;;;;12.06;65.25;98638.23;105348;1264;108387;-69
2024/03/10 10:51:57;;;;;;;7.60;5.10;;;;;;;12.03;65.21;98643.32;105437;1257;97518;-68
2024/03/10 10:54:25;;;;;;;9.80;4.90;;;;;;;12.01;65.09;98642.08;105477;1256;97434;-69
2024/03/10 10:56:54;;;;;;;8.80;4.80;;;;;;;11.98;64.79;98639.40;105552;1256;109964;-69
2024/03/10 10:59:24;;;;;;;7.20;5.20;;;;;;;11.96;64.77;98643.33;105689;1256;96597;-70
2024/03/10 11:03:37;;;;;;;7.10;4.70;;;;;;;12.02;64.54;98647.49;101942;1292;635356;-69
2024/03/10 11:06:08;;;;;;;10.60;5.50;;;;;;;12.04;64.56;98649.44;105490;1266;94837;-68
2024/03/10 11:08:41;;;;;;;8.70;5.00;;;;;;;12.08;64.21;98642.17;105165;1265;94269;-67
2024/03/10 11:11:14;;;;;;;7.90;4.50;;;;;;;12.11;64.15;98640.80;105279;1257;106344;-70
2024/03/10 11:13:45;;;;;;;7.20;4.90;;;;;;;12.16;64.09;98641.65;105576;1257;95517;-69
2024/03/10 11:16:22;;;;;;;8.00;4.90;;;;;;;12.17;63.68;98641.54;105119;1256;562903;-71
2024/03/10 11:18:50;;;;;;;7.00;4.60;;;;;;;12.23;63.86;98636.29;105748;1263;94692;-68
2024/03/10 11:21:22;;;;;;;9.80;5.10;;;;;;;12.28;64.03;98636.37;105859;1255;94201;-69
2024/03/10 11:23:50;;;;;;;;;;;;;;;12.36;63.85;98636.75;105682;1251;106802;-69
2024/03/10 11:26:20;;;;;;;8.10;4.90;;;;;;;12.40;63.75;98634.80;105803;1255;95465;-71
2024/03/10 11:28:56;;;;;;;10.10;5.90;;;;;;;12.45;63.44;98636.70;105653;1265;108151;-69
2024/03/10 11:31:26;;;;;;;7.50;4.80;;;;;;;12.46;63.47;98636.69;105533;1256;95367;-68
2024/03/10 11:33:58;;;;;;;8.70;6.00;;;;;;;12.50;63.11;98633.20;105505;1261;95243;-69
2024/03/10 11:36:35;;;;;;;9.20;5.80;;;;;;;12.52;62.86;98627.86;105791;1254;108511;-69
2024/03/10 11:39:04;;;;;;;10.70;6.00;;;;;;;12.54;62.90;98623.48;105744;1264;96074;-69
2024/03/10 11:41:33;;;;;;;8.20;5.40;;;;;;;12.58;62.96;98626.09;105473;1251;107605;-68
2024/03/10 11:44:01;;;;;;;9.40;5.20;;;;;;;12.70;62.77;98624.34;105717;1254;95249;-69
2024/03/10 11:46:33;;;;;;;8.20;5.00;;;;;;;12.85;62.72;98618.39;105562;1263;96545;-68
2024/03/10 11:49:01;;;;;;;8.50;5.50;;;;;;;12.92;62.55;98620.80;105752;1260;106490;-69
2024/03/10 11:51:38;;;;;;;10.90;6.10;;;;;;;12.97;62.48;98624.98;105896;1255;95426;-68